Time;durP1;ratioP1;P1;durP2;ratioP2;P2;SDS_P1;SDS_P2;PMS_P1;PMS_P2;Temp;Humidity;BMP_temperature;BMP_pressure;BME280_temperature;BME280_humidity;BME280_pressure;Samples;Min_cycle;Max_cycle;Signal;HPM_P1;HPM_P2
2023/06/19 00:02:21;;;;;;;9.55;7.90;;;19.90;99.90;;;;;;5136165;27;20074;-24
2023/06/19 00:04:46;;;;;;;8.40;7.60;;;19.90;99.90;;;;;;5136165;27;20039;-25
2023/06/19 00:07:12;;;;;;;9.13;7.68;;;19.80;99.90;;;;;;5136491;27;20090;-24
2023/06/19 00:09:38;;;;;;;9.55;8.55;;;19.80;99.90;;;;;;5118433;27;20035;-25
2023/06/19 00:12:04;;;;;;;9.20;8.20;;;19.80;99.90;;;;;;5117838;27;20051;-24
2023/06/19 00:14:30;;;;;;;9.50;8.10;;;19.80;99.90;;;;;;5117678;27;20043;-24
2023/06/19 00:16:56;;;;;;;9.77;8.75;;;19.70;99.90;;;;;;5100378;27;20516;-24
2023/06/19 00:19:22;;;;;;;9.68;8.70;;;19.70;99.90;;;;;;5136427;27;20047;-24
2023/06/19 00:21:48;;;;;;;9.32;8.43;;;19.70;99.90;;;;;;5135460;27;20450;-25
2023/06/19 00:24:14;;;;;;;10.82;8.65;;;19.70;99.90;;;;;;5135765;27;20039;-25
2023/06/19 00:26:40;;;;;;;13.30;8.68;;;19.70;99.90;;;;;;5135596;27;20074;-26
2023/06/19 00:29:07;;;;;;;10.52;9.18;;;19.60;99.90;;;;;;5135726;27;20175;-24
2023/06/19 00:31:32;;;;;;;9.98;8.98;;;19.60;99.90;;;;;;5135679;27;20043;-25
2023/06/19 00:33:58;;;;;;;10.95;9.00;;;19.60;99.90;;;;;;5136759;27;20113;-24
2023/06/19 00:36:25;;;;;;;9.18;8.25;;;19.60;99.90;;;;;;5117150;28;20481;-25
2023/06/19 00:38:52;;;;;;;10.05;8.57;;;19.60;99.90;;;;;;5135393;27;20047;-26
2023/06/19 00:41:18;;;;;;;9.63;8.40;;;19.70;99.90;;;;;;5135659;27;20039;-26
2023/06/19 00:43:44;;;;;;;10.32;8.35;;;19.70;99.90;;;;;;5135455;27;20586;-25
2023/06/19 00:46:11;;;;;;;10.57;8.02;;;19.70;99.90;;;;;;5116963;27;20059;-25
2023/06/19 00:48:37;;;;;;;10.48;7.60;;;19.70;99.90;;;;;;5135304;27;20043;-25
2023/06/19 00:51:03;;;;;;;8.02;7.22;;;19.80;99.90;;;;;;5135780;27;20047;-26
2023/06/19 00:53:30;;;;;;;8.85;7.15;;;19.80;99.90;;;;;;5135222;27;20172;-26
2023/06/19 00:55:57;;;;;;;9.30;7.68;;;19.80;99.90;;;;;;5135494;27;20043;-26
2023/06/19 00:58:23;;;;;;;11.18;7.82;;;19.80;86.70;;;;;;5135174;27;20050;-25
2023/06/19 01:00:49;;;;;;;7.85;7.07;;;19.80;47.90;;;;;;5135113;27;20393;-26
2023/06/19 01:03:16;;;;;;;9.40;7.78;;;19.80;7.30;;;;;;5134999;27;20045;-25
2023/06/19 01:05:42;;;;;;;9.13;7.20;;;19.90;1.00;;;;;;5116730;27;20039;-26
2023/06/19 01:08:26;;;;;;;9.80;7.30;;;19.80;1.00;;;;;;5117314;27;20058;-26
2023/06/19 01:10:56;;;;;;;8.77;6.35;;;19.80;1.00;;;;;;5135040;27;20054;-26
2023/06/19 01:13:47;;;;;;;7.28;6.38;;;19.80;1.00;;;;;;5116869;27;20070;-26
2023/06/19 01:16:13;;;;;;;6.88;6.25;;;19.80;1.00;;;;;;5134852;27;20053;-26
2023/06/19 01:18:40;;;;;;;9.00;6.60;;;19.80;1.00;;;;;;5134945;27;20047;-26
2023/06/19 01:21:16;;;;;;;8.13;7.07;;;19.80;1.00;;;;;;5116548;27;20043;-26
2023/06/19 01:23:43;;;;;;;8.27;7.03;;;19.80;1.00;;;;;;5134832;27;20050;-26
2023/06/19 01:26:10;;;;;;;6.97;5.97;;;19.80;1.00;;;;;;5134971;27;20045;-26
2023/06/19 01:28:37;;;;;;;8.43;6.40;;;19.80;1.00;;;;;;5134843;27;20139;-26
2023/06/19 01:31:11;;;;;;;7.68;6.88;;;19.80;1.00;;;;;;5134743;27;20400;-26
2023/06/19 01:33:37;;;;;;;10.27;7.10;;;19.80;1.00;;;;;;5134785;27;20058;-26
2023/06/19 01:36:04;;;;;;;13.00;6.40;;;19.80;1.00;;;;;;5134669;28;20541;-27
2023/06/19 01:38:31;;;;;;;7.35;6.50;;;19.80;1.00;;;;;;5134663;28;20087;-27
2023/06/19 01:40:59;;;;;;;8.05;6.25;;;19.80;99.90;;;;;;5134573;28;20051;-26
2023/06/19 01:43:25;;;;;;;8.90;5.93;;;19.80;99.90;;;;;;5134629;28;20100;-26
2023/06/19 01:45:52;;;;;;;10.80;6.25;;;19.80;99.90;;;;;;5135226;28;20051;-26
2023/06/19 01:48:17;;;;;;;8.85;5.82;;;19.80;99.90;;;;;;5134829;27;20577;-27
2023/06/19 01:50:48;;;;;;;8.32;6.03;;;19.80;99.90;;;;;;5138358;27;20082;-26
2023/06/19 01:53:14;;;;;;;5.50;4.78;;;19.80;1.00;;;;;;5138754;27;20046;-26
2023/06/19 01:55:40;;;;;;;7.68;5.85;;;19.80;1.00;;;;;;5138412;27;20492;-26
2023/06/19 01:58:07;;;;;;;9.68;6.18;;;19.90;1.00;;;;;;5138631;27;20175;-26
2023/06/19 02:00:37;;;;;;;9.35;5.90;;;19.90;99.90;;;;;;5139174;27;20103;-26
2023/06/19 02:03:04;;;;;;;6.43;5.68;;;20.00;99.90;;;;;;5139060;27;20122;-26
2023/06/19 02:05:34;;;;;;;9.18;5.70;;;20.00;99.90;;;;;;5139087;27;20049;-27
2023/06/19 02:08:00;;;;;;;7.78;5.38;;;20.00;99.90;;;;;;5121177;27;20373;-26
2023/06/19 02:10:25;;;;;;;7.28;5.75;;;20.10;74.10;;;;;;5138425;27;20047;-26
2023/06/19 02:12:51;;;;;;;9.48;6.18;;;20.20;1.00;;;;;;5138672;27;20035;-26
2023/06/19 02:15:17;;;;;;;6.47;5.70;;;20.20;1.00;;;;;;5138898;27;20475;-27
2023/06/19 02:17:42;;;;;;;6.13;5.53;;;20.30;1.00;;;;;;5138355;27;20046;-26
2023/06/19 02:20:11;;;;;;;7.70;5.82;;;20.30;99.90;;;;;;5138247;27;20428;-26
2023/06/19 02:22:38;;;;;;;7.25;6.22;;;20.30;99.90;;;;;;5138144;27;20055;-26
2023/06/19 02:25:05;;;;;;;8.02;5.90;;;20.30;99.90;;;;;;5138057;27;20051;-27
2023/06/19 02:27:31;;;;;;;6.93;6.18;;;20.30;99.90;;;;;;5119848;27;20046;-27
2023/06/19 02:29:56;;;;;;;9.55;6.32;;;20.30;99.90;;;;;;5138062;27;20043;-27
2023/06/19 02:32:22;;;;;;;6.93;5.45;;;20.20;99.90;;;;;;5120017;27;20096;-27
2023/06/19 02:34:48;;;;;;;9.40;6.13;;;20.20;99.90;;;;;;5119722;27;20050;-27
2023/06/19 02:37:13;;;;;;;8.65;6.22;;;20.30;99.90;;;;;;5120219;27;20472;-26
2023/06/19 02:39:39;;;;;;;10.07;6.47;;;20.20;99.90;;;;;;5138141;27;20101;-26
2023/06/19 02:42:06;;;;;;;7.68;5.95;;;20.20;99.90;;;;;;5137413;27;20392;-27
2023/06/19 02:44:32;;;;;;;7.97;6.60;;;20.20;99.90;;;;;;5137875;27;20063;-26
2023/06/19 02:46:57;;;;;;;7.15;6.10;;;20.20;99.90;;;;;;5138337;27;20061;-27
2023/06/19 02:49:23;;;;;;;8.35;6.57;;;20.20;99.90;;;;;;5137646;27;20039;-27
2023/06/19 02:51:49;;;;;;;9.15;6.05;;;20.20;99.90;;;;;;5119597;27;20086;-27
2023/06/19 02:54:14;;;;;;;11.30;6.40;;;20.20;99.90;;;;;;5119303;27;20042;-26
2023/06/19 02:56:40;;;;;;;6.47;5.78;;;20.20;99.90;;;;;;5102776;27;20078;-26
2023/06/19 02:59:06;;;;;;;7.53;6.18;;;20.10;99.90;;;;;;5119202;27;20481;-26
2023/06/19 03:01:32;;;;;;;9.40;6.07;;;20.10;99.90;;;;;;5136752;27;20138;-27
2023/06/19 03:03:57;;;;;;;7.30;6.25;;;20.10;99.90;;;;;;5137435;27;20118;-27
2023/06/19 03:06:23;;;;;;;7.13;5.82;;;20.10;99.90;;;;;;5119079;27;20042;-27
2023/06/19 03:08:49;;;;;;;8.25;6.32;;;20.10;99.90;;;;;;5137271;27;20119;-27
2023/06/19 03:11:15;;;;;;;9.10;6.65;;;20.10;99.90;;;;;;5137269;27;20127;-27
2023/06/19 03:13:46;;;;;;;8.55;6.85;;;20.10;99.90;;;;;;5118904;27;20112;-27
2023/06/19 03:16:12;;;;;;;12.95;6.60;;;20.10;99.90;;;;;;5137138;27;20126;-27
2023/06/19 03:18:38;;;;;;;7.05;5.88;;;20.00;99.90;;;;;;5137159;27;20122;-26
2023/06/19 03:21:04;;;;;;;7.57;6.20;;;20.00;99.90;;;;;;5136986;27;20105;-27
2023/06/19 03:23:29;;;;;;;8.18;6.53;;;19.90;99.90;;;;;;5137853;27;20047;-26
2023/06/19 03:25:55;;;;;;;8.23;6.10;;;19.90;99.90;;;;;;5136939;27;20531;-27
2023/06/19 03:28:21;;;;;;;7.30;6.35;;;19.80;99.90;;;;;;5137274;27;20091;-26
2023/06/19 03:30:47;;;;;;;7.85;6.80;;;19.80;99.90;;;;;;5136567;27;20130;-26
2023/06/19 03:33:12;;;;;;;10.48;6.95;;;19.70;99.90;;;;;;5118561;27;20035;-26
2023/06/19 03:35:38;;;;;;;7.85;6.25;;;19.60;1.00;;;;;;5136793;27;20043;-27
2023/06/19 03:38:04;;;;;;;11.57;7.30;;;19.60;1.00;;;;;;5137325;27;20039;-27
2023/06/19 03:40:29;;;;;;;7.93;6.65;;;19.50;1.00;;;;;;5136389;27;20131;-26
2023/06/19 03:42:55;;;;;;;9.05;6.40;;;19.40;1.00;;;;;;5136895;27;20186;-26
2023/06/19 03:45:21;;;;;;;8.82;6.95;;;19.40;1.00;;;;;;5084053;27;20518;-26
2023/06/19 03:47:47;;;;;;;7.82;6.15;;;19.40;13.50;;;;;;5118887;27;20461;-26
2023/06/19 03:50:12;;;;;;;11.20;7.43;;;19.30;16.50;;;;;;5136249;27;20054;-27
2023/06/19 03:52:38;;;;;;;9.32;6.55;;;19.40;14.70;;;;;;5118036;27;20079;-26
2023/06/19 03:55:04;;;;;;;8.05;6.60;;;19.40;1.00;;;;;;5084528;27;20074;-26
2023/06/19 03:57:30;;;;;;;10.45;6.82;;;19.40;6.80;;;;;;5084419;27;20055;-26
2023/06/19 03:59:56;;;;;;;7.50;6.28;;;19.30;17.00;;;;;;5136319;27;20050;-27
2023/06/19 04:02:22;;;;;;;8.48;6.65;;;19.30;72.80;;;;;;5118855;27;20404;-26
2023/06/19 04:04:48;;;;;;;8.55;6.15;;;19.30;92.30;;;;;;5118098;27;20050;-27
2023/06/19 04:07:13;;;;;;;8.10;6.35;;;19.30;99.90;;;;;;5136742;27;20074;-27
2023/06/19 04:09:39;;;;;;;8.98;7.10;;;19.40;99.90;;;;;;5117856;27;20050;-26
2023/06/19 04:12:05;;;;;;;8.18;6.25;;;19.50;99.90;;;;;;5135381;27;20054;-27
2023/06/19 04:14:31;;;;;;;7.25;6.50;;;19.50;99.90;;;;;;5136117;27;20130;-26
2023/06/19 04:16:57;;;;;;;8.50;6.50;;;19.40;99.90;;;;;;5135923;27;20075;-26
2023/06/19 04:19:22;;;;;;;8.30;6.30;;;19.40;99.90;;;;;;5135886;27;20050;-27
2023/06/19 04:21:48;;;;;;;8.20;6.60;;;19.40;99.90;;;;;;5135853;27;20041;-26
2023/06/19 04:24:16;;;;;;;6.93;6.15;;;19.50;99.90;;;;;;5135848;27;20069;-26
2023/06/19 04:26:42;;;;;;;10.32;7.25;;;19.60;99.90;;;;;;5135963;27;20070;-26
2023/06/19 04:29:08;;;;;;;8.07;6.53;;;19.60;99.90;;;;;;5117534;27;20373;-26
2023/06/19 04:31:40;;;;;;;7.30;6.57;;;19.60;99.90;;;;;;5135624;27;20090;-27
2023/06/19 04:34:06;;;;;;;8.95;7.82;;;19.60;99.90;;;;;;5136564;27;20043;-27
2023/06/19 04:36:32;;;;;;;8.63;7.13;;;19.70;99.90;;;;;;5135578;27;20565;-26
2023/06/19 04:39:00;;;;;;;8.38;7.20;;;19.70;1.00;;;;;;5117479;27;20126;-26
2023/06/19 04:41:26;;;;;;;7.57;6.15;;;19.70;1.00;;;;;;5117134;27;20044;-27
2023/06/19 04:43:52;;;;;;;7.30;6.35;;;19.70;1.00;;;;;;5135447;27;20122;-27
2023/06/19 04:46:20;;;;;;;6.40;5.65;;;19.70;1.00;;;;;;5116677;27;20051;-26
2023/06/19 04:48:50;;;;;;;7.38;5.47;;;19.80;1.00;;;;;;5135412;27;20076;-26
2023/06/19 04:51:20;;;;;;;6.40;5.43;;;19.90;58.10;;;;;;5135667;27;20069;-27
2023/06/19 04:53:47;;;;;;;6.80;5.47;;;19.90;99.90;;;;;;5135847;27;20066;-27
2023/06/19 04:56:13;;;;;;;7.15;6.00;;;20.00;99.90;;;;;;5135253;27;20080;-27
2023/06/19 04:58:45;;;;;;;6.90;5.90;;;20.00;99.90;;;;;;5135477;27;20391;-26
2023/06/19 05:01:12;;;;;;;6.57;5.72;;;20.00;99.90;;;;;;5135168;27;20051;-27
2023/06/19 05:03:39;;;;;;;10.55;4.85;;;20.10;99.90;;;;;;5117046;27;20370;-26
2023/06/19 05:06:04;;;;;;;5.00;4.18;;;20.10;99.90;;;;;;5135091;27;20377;-26
2023/06/19 05:08:30;;;;;;;4.43;3.50;;;20.20;99.90;;;;;;5100379;27;20046;-26
2023/06/19 05:10:57;;;;;;;5.13;3.42;;;20.20;99.90;;;;;;5116960;27;20050;-26
2023/06/19 05:13:26;;;;;;;4.60;3.78;;;20.20;99.90;;;;;;5134972;27;20091;-27
2023/06/19 05:15:51;;;;;;;6.30;3.58;;;20.30;99.90;;;;;;5135840;27;20045;-27
2023/06/19 05:18:17;;;;;;;4.65;3.92;;;20.40;99.90;;;;;;5134856;27;20130;-27
2023/06/19 05:20:44;;;;;;;4.93;3.80;;;20.50;99.90;;;;;;5134891;27;20050;-27
2023/06/19 05:23:10;;;;;;;5.65;4.35;;;20.70;99.90;;;;;;5134592;27;20046;-25
2023/06/19 05:25:36;;;;;;;8.80;4.30;;;20.80;99.90;;;;;;5116647;27;20039;-26
2023/06/19 05:28:01;;;;;;;4.90;4.25;;;20.90;99.90;;;;;;5135627;27;20043;-27
2023/06/19 05:30:27;;;;;;;4.85;4.35;;;21.00;99.90;;;;;;5134745;27;20477;-26
2023/06/19 05:32:53;;;;;;;5.72;4.47;;;21.10;99.90;;;;;;5134435;27;20483;-27
2023/06/19 05:35:19;;;;;;;5.20;4.18;;;21.30;99.90;;;;;;5134390;27;20131;-26
2023/06/19 05:37:45;;;;;;;6.03;4.63;;;21.20;99.90;;;;;;5134689;28;20046;-26
2023/06/19 05:40:11;;;;;;;4.90;4.32;;;21.10;99.90;;;;;;5134707;28;20050;-26
2023/06/19 05:42:37;;;;;;;10.38;5.45;;;21.00;1.00;;;;;;5134544;28;20462;-27
2023/06/19 05:45:04;;;;;;;6.40;4.78;;;20.80;1.00;;;;;;5134485;28;20134;-26
2023/06/19 05:47:30;;;;;;;4.93;4.32;;;20.80;1.00;;;;;;5134573;28;20051;-26
2023/06/19 05:49:59;;;;;;;5.55;4.40;;;20.70;1.00;;;;;;5117234;28;20453;-26
2023/06/19 05:52:25;;;;;;;5.97;4.95;;;20.70;1.00;;;;;;5135100;28;20035;-26
2023/06/19 05:54:53;;;;;;;6.47;5.78;;;20.70;1.00;;;;;;5134510;28;20476;-27
2023/06/19 05:57:21;;;;;;;9.55;6.93;;;20.60;99.90;;;;;;5116429;28;20047;-26
2023/06/19 05:59:47;;;;;;;7.70;6.88;;;20.60;69.30;;;;;;5135032;28;20043;-26
2023/06/19 06:02:13;;;;;;;8.55;6.95;;;20.60;99.90;;;;;;5134426;28;20039;-26
2023/06/19 06:04:39;;;;;;;9.57;7.30;;;20.60;99.90;;;;;;5134453;28;20066;-26
2023/06/19 06:07:05;;;;;;;10.13;7.65;;;20.70;99.90;;;;;;5116427;28;20054;-26
2023/06/19 06:09:32;;;;;;;8.55;7.30;;;20.60;99.90;;;;;;5116365;28;20130;-26
2023/06/19 06:11:58;;;;;;;8.52;7.38;;;20.70;99.90;;;;;;5116269;28;20047;-26
2023/06/19 06:14:24;;;;;;;10.98;8.15;;;20.60;99.90;;;;;;5134308;28;20130;-27
2023/06/19 06:16:50;;;;;;;11.82;9.52;;;20.60;99.90;;;;;;5134280;28;20047;-26
2023/06/19 06:19:16;;;;;;;10.75;8.88;;;20.70;99.90;;;;;;5116066;28;20050;-26
2023/06/19 06:21:41;;;;;;;11.52;8.63;;;20.80;99.90;;;;;;5134145;28;20126;-26
2023/06/19 06:24:07;;;;;;;11.57;9.82;;;20.80;99.90;;;;;;5134208;28;20049;-26
2023/06/19 06:26:35;;;;;;;13.48;11.13;;;20.90;99.90;;;;;;5134127;27;20051;-26
2023/06/19 06:29:01;;;;;;;12.65;9.68;;;20.90;99.90;;;;;;5135040;28;20050;-26
2023/06/19 06:31:27;;;;;;;12.55;8.95;;;20.80;99.90;;;;;;5134184;28;20380;-27
2023/06/19 06:33:53;;;;;;;12.60;10.77;;;20.80;99.90;;;;;;5134133;28;20050;-26
2023/06/19 06:36:18;;;;;;;13.00;10.77;;;20.60;99.90;;;;;;5136892;27;20404;-25
2023/06/19 06:38:47;;;;;;;15.90;10.88;;;20.50;99.90;;;;;;5119528;27;20054;-26
2023/06/19 06:41:13;;;;;;;12.30;10.77;;;20.50;99.90;;;;;;5120014;27;20047;-26
2023/06/19 06:43:42;;;;;;;12.38;11.07;;;20.50;99.90;;;;;;5137818;27;20050;-26
2023/06/19 06:46:08;;;;;;;12.85;10.35;;;20.60;99.90;;;;;;5119271;27;20059;-26
2023/06/19 06:48:34;;;;;;;12.95;10.32;;;20.50;99.90;;;;;;5138276;27;20080;-26
2023/06/19 06:51:01;;;;;;;14.70;12.40;;;20.50;99.90;;;;;;5137668;27;20046;-25
2023/06/19 06:53:31;;;;;;;16.58;14.15;;;20.40;99.90;;;;;;5119513;27;20046;-26
2023/06/19 06:55:59;;;;;;;14.88;12.85;;;20.40;99.90;;;;;;5137688;27;20058;-26
2023/06/19 06:58:25;;;;;;;15.27;13.30;;;20.30;99.90;;;;;;5138141;27;20397;-26
2023/06/19 07:00:51;;;;;;;17.83;15.30;;;20.50;99.90;;;;;;5137510;27;20043;-26
2023/06/19 07:03:18;;;;;;;19.27;14.45;;;20.50;99.90;;;;;;5137428;27;20035;-27
2023/06/19 07:05:44;;;;;;;22.42;16.00;;;20.40;99.90;;;;;;5137408;27;20053;-26
2023/06/19 07:08:10;;;;;;;22.88;15.77;;;20.40;99.90;;;;;;5119078;27;20125;-25
2023/06/19 07:10:35;;;;;;;21.98;16.95;;;20.30;99.90;;;;;;5137349;27;20088;-25
2023/06/19 07:13:01;;;;;;;24.92;18.75;;;20.10;99.90;;;;;;5137286;27;20441;-26
2023/06/19 07:15:27;;;;;;;30.10;21.15;;;20.10;99.90;;;;;;5137196;27;20039;-26
2023/06/19 07:17:52;;;;;;;28.38;20.15;;;19.80;99.90;;;;;;5137375;27;20047;-26
2023/06/19 07:20:18;;;;;;;31.75;21.73;;;19.70;99.90;;;;;;5137131;27;20437;-26
2023/06/19 07:22:45;;;;;;;33.83;21.75;;;19.60;99.90;;;;;;5136965;27;20455;-26
2023/06/19 07:25:12;;;;;;;34.55;23.17;;;19.50;99.90;;;;;;5136957;27;20091;-25
2023/06/19 07:27:39;;;;;;;40.88;28.25;;;19.40;99.90;;;;;;5137803;27;20051;-26
2023/06/19 07:30:06;;;;;;;38.55;25.30;;;19.40;99.90;;;;;;5136953;27;20090;-26
2023/06/19 07:32:31;;;;;;;33.35;21.08;;;19.40;99.90;;;;;;5118583;27;20046;-25
2023/06/19 07:34:57;;;;;;;31.30;19.08;;;19.50;99.90;;;;;;5136852;27;20396;-25
2023/06/19 07:37:26;;;;;;;26.63;18.80;;;19.60;99.90;;;;;;5136773;27;20066;-25
2023/06/19 07:39:52;;;;;;;29.73;20.67;;;19.70;99.90;;;;;;5136766;27;20090;-26
2023/06/19 07:42:19;;;;;;;31.65;21.27;;;19.80;99.90;;;;;;5101471;27;20509;-26
2023/06/19 07:44:45;;;;;;;27.02;17.90;;;19.90;99.90;;;;;;5136338;27;20653;-26
2023/06/19 07:47:11;;;;;;;28.25;19.10;;;20.00;99.90;;;;;;5136525;27;20067;-26
2023/06/19 07:49:37;;;;;;;31.08;20.83;;;20.00;99.90;;;;;;5136605;27;20396;-25
2023/06/19 07:52:04;;;;;;;29.55;20.02;;;19.90;99.90;;;;;;5136523;27;20039;-26
2023/06/19 07:54:30;;;;;;;28.67;19.98;;;19.90;99.90;;;;;;5118379;27;20051;-26
2023/06/19 07:56:55;;;;;;;30.90;20.98;;;19.90;99.90;;;;;;5118530;27;20484;-26
2023/06/19 07:59:22;;;;;;;27.23;19.08;;;19.80;99.90;;;;;;5136938;27;20050;-26
2023/06/19 08:01:48;;;;;;;29.52;20.25;;;19.90;99.90;;;;;;5136256;27;20047;-26
2023/06/19 08:04:14;;;;;;;24.60;17.13;;;19.90;99.90;;;;;;5136836;27;20121;-26
2023/06/19 08:06:40;;;;;;;26.15;18.83;;;19.80;99.90;;;;;;5136510;27;20445;-26
2023/06/19 08:09:05;;;;;;;29.27;20.02;;;19.70;99.90;;;;;;5136143;27;20138;-26
2023/06/19 08:11:31;;;;;;;27.80;20.13;;;19.70;99.90;;;;;;5136077;27;20046;-26
2023/06/19 08:13:57;;;;;;;26.92;17.60;;;19.80;99.90;;;;;;5136854;27;20082;-26
2023/06/19 08:16:25;;;;;;;21.33;15.88;;;19.80;99.90;;;;;;5135689;27;20193;-25
2023/06/19 08:18:51;;;;;;;17.02;11.50;;;20.00;99.90;;;;;;5135957;27;20468;-25
2023/06/19 08:21:17;;;;;;;12.18;10.40;;;20.10;99.90;;;;;;5136704;27;20050;-25
2023/06/19 08:23:43;;;;;;;18.50;13.40;;;20.00;99.90;;;;;;5135833;27;20633;-25
2023/06/19 08:26:10;;;;;;;18.45;12.65;;;20.00;99.90;;;;;;5135758;27;20039;-26
2023/06/19 08:28:37;;;;;;;18.70;11.82;;;20.00;99.90;;;;;;5118546;27;20357;-26
2023/06/19 08:31:03;;;;;;;16.23;12.88;;;20.10;99.90;;;;;;5135735;27;20055;-26
2023/06/19 08:33:28;;;;;;;18.20;13.45;;;20.10;99.90;;;;;;5135671;27;20039;-26
2023/06/19 08:35:54;;;;;;;14.43;12.23;;;20.20;99.90;;;;;;5135602;27;20039;-27
2023/06/19 08:38:20;;;;;;;15.73;12.13;;;20.20;99.90;;;;;;5135573;27;20050;-25
2023/06/19 08:40:46;;;;;;;13.80;10.07;;;20.20;99.90;;;;;;5135211;27;20078;-25
2023/06/19 08:43:15;;;;;;;11.30;9.80;;;20.10;99.90;;;;;;5135101;27;20069;-25
2023/06/19 08:45:41;;;;;;;13.82;10.48;;;20.10;99.90;;;;;;5135570;27;20055;-26
2023/06/19 08:48:08;;;;;;;14.40;10.02;;;20.20;99.90;;;;;;5135370;27;20074;-26
2023/06/19 08:50:34;;;;;;;14.57;10.32;;;20.30;99.90;;;;;;5135371;27;20053;-27
2023/06/19 08:53:00;;;;;;;13.55;9.75;;;20.20;99.90;;;;;;5117253;27;20051;-26
2023/06/19 08:55:25;;;;;;;11.90;10.32;;;20.30;99.90;;;;;;5135289;27;20129;-26
2023/06/19 08:57:52;;;;;;;10.63;9.48;;;20.40;99.90;;;;;;5117292;27;20135;-26
2023/06/19 09:00:29;;;;;;;13.70;9.63;;;20.40;99.90;;;;;;5116961;27;20103;-26
2023/06/19 09:03:03;;;;;;;9.55;7.78;;;20.40;99.90;;;;;;5135608;27;20464;-25
2023/06/19 09:05:29;;;;;;;10.38;9.27;;;20.20;99.90;;;;;;5135710;27;20445;-26
2023/06/19 09:08:03;;;;;;;12.70;9.38;;;20.20;99.90;;;;;;5135089;27;20050;-26
2023/06/19 09:10:29;;;;;;;14.27;9.45;;;20.20;99.90;;;;;;5135160;27;20054;-26
2023/06/19 09:13:03;;;;;;;12.68;9.52;;;20.10;99.90;;;;;;5116924;27;20233;-26
2023/06/19 09:15:34;;;;;;;12.27;8.88;;;20.00;99.90;;;;;;5135039;27;20047;-27
2023/06/19 09:18:04;;;;;;;11.10;8.48;;;19.90;99.90;;;;;;5135472;27;20051;-26
2023/06/19 09:20:30;;;;;;;13.27;8.75;;;19.80;99.90;;;;;;5135416;27;20039;-26
2023/06/19 09:22:57;;;;;;;14.30;9.80;;;19.60;99.90;;;;;;5134841;27;20050;-26
2023/06/19 09:25:26;;;;;;;13.82;8.77;;;19.60;99.90;;;;;;5134745;27;20039;-26
2023/06/19 09:27:56;;;;;;;10.45;8.65;;;19.50;99.90;;;;;;5116677;28;20054;-26
2023/06/19 09:30:22;;;;;;;13.43;10.95;;;19.40;99.90;;;;;;5134776;27;20144;-27
2023/06/19 09:32:48;;;;;;;13.38;10.07;;;19.40;99.90;;;;;;5099703;28;20043;-25
2023/06/19 09:35:14;;;;;;;16.25;11.55;;;19.40;99.90;;;;;;5134788;27;20047;-26
2023/06/19 09:37:40;;;;;;;15.15;11.18;;;19.40;99.90;;;;;;5134699;27;20054;-26
2023/06/19 09:40:10;;;;;;;16.38;12.30;;;19.50;99.90;;;;;;5134694;28;20090;-26
2023/06/19 09:42:47;;;;;;;16.23;11.00;;;19.50;99.90;;;;;;5116764;28;20050;-26
2023/06/19 09:45:18;;;;;;;15.73;11.55;;;19.60;99.90;;;;;;5135470;28;20067;-26
2023/06/19 09:47:46;;;;;;;13.40;11.25;;;19.70;99.90;;;;;;5134650;28;20082;-26
2023/06/19 09:50:14;;;;;;;11.27;9.95;;;19.70;99.90;;;;;;5134639;28;20134;-26
2023/06/19 09:52:42;;;;;;;17.48;11.15;;;19.70;99.90;;;;;;5116453;28;20122;-26
2023/06/19 09:55:10;;;;;;;18.83;11.65;;;19.70;99.90;;;;;;5135133;28;20082;-26
2023/06/19 09:57:38;;;;;;;12.25;10.77;;;19.70;99.90;;;;;;5117009;28;20468;-26
2023/06/19 10:00:13;;;;;;;21.05;12.10;;;19.70;99.90;;;;;;5134506;28;20083;-26
2023/06/19 10:02:41;;;;;;;14.95;10.95;;;19.70;99.90;;;;;;5134726;28;20131;-26
2023/06/19 10:05:11;;;;;;;18.55;12.40;;;19.70;99.90;;;;;;5134404;28;20480;-26
2023/06/19 10:07:38;;;;;;;15.50;10.35;;;19.90;99.90;;;;;;5135271;28;20043;-26
2023/06/19 10:10:09;;;;;;;16.90;12.25;;;20.00;99.90;;;;;;5134909;27;20457;-26
2023/06/19 10:12:37;;;;;;;17.67;11.05;;;20.20;99.90;;;;;;5138961;27;20086;-26
2023/06/19 10:15:18;;;;;;;15.82;11.43;;;20.40;99.90;;;;;;5138372;27;20046;-26
2023/06/19 10:17:53;;;;;;;16.35;13.30;;;20.50;82.20;;;;;;5138951;27;20047;-26
2023/06/19 10:20:32;;;;;;;17.42;12.45;;;20.40;1.00;;;;;;5139191;27;20051;-27
2023/06/19 10:23:07;;;;;;;15.35;12.25;;;20.50;1.00;;;;;;5139048;27;20035;-27
2023/06/19 10:25:43;;;;;;;14.75;11.13;;;20.60;1.00;;;;;;5138105;27;20515;-26
2023/06/19 10:28:27;;;;;;;15.77;11.60;;;20.50;1.00;;;;;;5138708;27;20464;-26
2023/06/19 10:30:53;;;;;;;13.82;10.13;;;20.40;1.00;;;;;;5120023;27;20112;-25
2023/06/19 10:33:19;;;;;;;12.55;10.23;;;20.20;1.00;;;;;;5102921;27;20054;-26
2023/06/19 10:35:45;;;;;;;15.10;10.10;;;20.20;1.00;;;;;;5138540;27;20047;-25
2023/06/19 10:38:14;;;;;;;13.88;10.63;;;20.10;1.00;;;;;;5137943;27;20488;-26
2023/06/19 10:40:39;;;;;;;14.75;11.27;;;20.10;1.00;;;;;;5137940;27;20035;-26
2023/06/19 10:43:05;;;;;;;17.73;11.20;;;20.30;1.00;;;;;;5137805;27;20438;-26
2023/06/19 10:45:32;;;;;;;14.43;10.73;;;20.30;1.00;;;;;;5137601;27;20055;-26
2023/06/19 10:48:02;;;;;;;14.65;12.48;;;20.30;1.00;;;;;;5137822;27;20074;-26
2023/06/19 10:50:28;;;;;;;17.85;11.52;;;20.50;1.00;;;;;;5138387;27;20047;-26
2023/06/19 10:52:58;;;;;;;15.40;11.77;;;21.00;1.00;;;;;;5137696;27;20043;-26
2023/06/19 10:55:23;;;;;;;16.48;11.75;;;21.40;99.90;;;;;;5137618;27;20035;-26
2023/06/19 10:57:52;;;;;;;15.82;11.65;;;21.60;99.90;;;;;;5137896;27;20054;-26
2023/06/19 11:00:33;;;;;;;13.23;11.38;;;21.70;94.40;;;;;;5137538;27;20047;-26
2023/06/19 11:02:58;;;;;;;16.20;11.75;;;21.60;99.90;;;;;;5137483;27;20095;-26
2023/06/19 11:05:26;;;;;;;16.17;11.30;;;21.30;1.00;;;;;;5138001;27;20043;-26
2023/06/19 11:07:54;;;;;;;17.73;12.25;;;21.20;66.80;;;;;;5137996;27;20148;-27
2023/06/19 11:10:22;;;;;;;13.55;11.27;;;21.10;99.90;;;;;;5137368;27;20051;-27
2023/06/19 11:12:49;;;;;;;15.15;11.13;;;21.20;99.90;;;;;;5138110;27;20043;-26
2023/06/19 11:15:14;;;;;;;14.90;11.77;;;21.40;99.90;;;;;;5137567;27;20438;-26
2023/06/19 11:17:40;;;;;;;17.20;13.25;;;21.40;99.90;;;;;;5137258;27;20042;-26
2023/06/19 11:20:15;;;;;;;16.35;12.23;;;21.60;99.90;;;;;;5137111;27;20054;-27
2023/06/19 11:22:42;;;;;;;17.67;13.07;;;21.90;99.90;;;;;;5136748;27;20461;-26
2023/06/19 11:25:09;;;;;;;16.15;14.10;;;21.90;1.00;;;;;;5136757;27;20377;-27
2023/06/19 11:27:39;;;;;;;16.77;13.20;;;21.70;1.00;;;;;;5137575;27;20062;-26
2023/06/19 11:30:07;;;;;;;16.30;12.45;;;21.50;1.00;;;;;;5136949;27;20039;-26
2023/06/19 11:32:41;;;;;;;17.25;13.98;;;21.40;1.00;;;;;;5136975;27;20058;-26
2023/06/19 11:35:10;;;;;;;15.60;12.20;;;21.50;1.00;;;;;;5137537;27;20066;-26
2023/06/19 11:37:37;;;;;;;13.48;11.65;;;21.80;1.00;;;;;;5137392;27;20111;-26
2023/06/19 11:40:18;;;;;;;17.73;10.30;;;22.10;99.90;;;;;;5136803;27;20050;-26
2023/06/19 11:42:45;;;;;;;15.68;10.55;;;22.40;91.60;;;;;;5137531;27;20045;-26
2023/06/19 11:45:11;;;;;;;18.20;12.82;;;22.50;99.90;;;;;;5136727;27;20051;-26
2023/06/19 11:47:37;;;;;;;13.57;11.15;;;22.90;99.90;;;;;;5136609;27;20103;-27
2023/06/19 11:50:07;;;;;;;15.23;11.38;;;23.10;93.00;;;;;;5137075;27;20051;-26
2023/06/19 11:52:33;;;;;;;16.63;12.63;;;22.90;1.00;;;;;;5118295;27;20077;-25
2023/06/19 11:54:59;;;;;;;15.57;12.23;;;22.40;99.90;;;;;;5136497;27;20083;-26
2023/06/19 11:57:26;;;;;;;21.08;14.88;;;22.10;99.90;;;;;;5136442;27;20047;-26
2023/06/19 11:59:52;;;;;;;16.63;12.52;;;22.30;1.00;;;;;;5136360;27;20503;-27
2023/06/19 12:02:18;;;;;;;20.35;14.63;;;22.90;99.90;;;;;;5118010;27;20047;-26
2023/06/19 12:04:43;;;;;;;15.23;12.05;;;23.20;1.00;;;;;;5136321;27;20069;-26
2023/06/19 12:07:12;;;;;;;17.70;11.48;;;24.00;99.90;;;;;;5136194;27;20043;-26
2023/06/19 12:09:38;;;;;;;15.73;11.85;;;23.80;1.00;;;;;;5136731;27;20441;-26
2023/06/19 12:12:06;;;;;;;12.95;10.32;;;23.80;1.00;;;;;;5136119;27;20046;-26
2023/06/19 12:14:31;;;;;;;10.32;8.80;;;23.40;1.00;;;;;;5136114;27;20139;-27
2023/06/19 12:16:57;;;;;;;14.00;11.32;;;23.50;99.90;;;;;;5136598;27;20472;-26
2023/06/19 12:19:23;;;;;;;17.35;14.75;;;23.10;50.80;;;;;;5135951;27;20043;-26
2023/06/19 12:21:48;;;;;;;18.25;13.32;;;22.80;1.00;;;;;;5135848;27;20035;-26
2023/06/19 12:24:14;;;;;;;14.93;12.52;;;23.30;99.90;;;;;;5135831;27;20126;-27
2023/06/19 12:26:40;;;;;;;16.60;11.60;;;23.10;1.00;;;;;;5135736;27;20050;-27
2023/06/19 12:29:06;;;;;;;15.95;12.70;;;23.10;99.90;;;;;;5135751;27;20046;-27
2023/06/19 12:31:36;;;;;;;14.30;11.50;;;23.10;99.90;;;;;;5135801;27;20472;-26
2023/06/19 12:34:02;;;;;;;14.93;11.00;;;23.10;99.90;;;;;;5116831;27;20082;-27
2023/06/19 12:36:31;;;;;;;13.88;12.30;;;22.80;99.90;;;;;;5135664;27;20047;-26
2023/06/19 12:38:59;;;;;;;15.45;11.90;;;23.00;99.90;;;;;;5135663;27;20089;-26